createdAt,value
2023-04-26T00:01:27.521Z,1.90
2023-04-26T00:03:57.635Z,2.07
2023-04-26T00:06:27.306Z,1.70
2023-04-26T00:08:58.340Z,1.50
2023-04-26T00:11:27.063Z,1.60
2023-04-26T00:13:56.598Z,1.53
2023-04-26T00:16:27.387Z,1.60
2023-04-26T00:18:56.847Z,1.50
2023-04-26T00:21:28.587Z,1.63
2023-04-26T00:23:59.556Z,1.80
2023-04-26T00:26:28.491Z,2.00
2023-04-26T00:28:56.668Z,1.80
2023-04-26T00:31:27.116Z,2.00
2023-04-26T00:33:56.415Z,2.00
2023-04-26T00:36:26.813Z,1.80
2023-04-26T00:38:58.823Z,1.73
2023-04-26T00:41:27.200Z,1.60
2023-04-26T00:43:56.863Z,1.70
2023-04-26T00:46:24.832Z,2.07
2023-04-26T00:48:56.700Z,1.63
2023-04-26T00:51:28.336Z,1.87
2023-04-26T00:53:57.741Z,1.80
2023-04-26T00:56:28.539Z,2.07
2023-04-26T00:58:56.537Z,2.07
2023-04-26T01:01:24.293Z,2.07
2023-04-26T01:03:57.268Z,1.90
2023-04-26T01:06:27.320Z,1.83
2023-04-26T01:09:02.840Z,2.07
2023-04-26T01:11:39.198Z,2.30
2023-04-26T01:14:08.681Z,1.70
2023-04-26T01:16:44.962Z,2.30
2023-04-26T01:19:16.501Z,1.90
2023-04-26T01:21:47.009Z,2.10
2023-04-26T01:24:17.987Z,1.90
2023-04-26T01:26:46.590Z,1.80
2023-04-26T01:29:16.049Z,1.97
2023-04-26T01:31:46.305Z,2.10
2023-04-26T01:34:17.268Z,1.67
2023-04-26T01:36:45.007Z,1.87
2023-04-26T01:39:18.326Z,1.83
2023-04-26T01:41:47.451Z,1.47
2023-04-26T01:44:15.632Z,2.00
2023-04-26T01:46:48.812Z,1.33
2023-04-26T01:49:17.117Z,1.53
2023-04-26T01:51:47.665Z,1.77
2023-04-26T01:54:16.793Z,1.90
2023-04-26T01:56:46.972Z,1.70
2023-04-26T01:59:14.689Z,1.70
2023-04-26T02:01:44.739Z,1.80
2023-04-26T02:04:16.055Z,1.60
2023-04-26T02:06:45.876Z,1.70
2023-04-26T02:09:18.132Z,1.57
2023-04-26T02:11:47.496Z,1.63
2023-04-26T02:14:17.103Z,1.80
2023-04-26T02:16:44.914Z,1.77
2023-04-26T02:19:16.618Z,1.63
2023-04-26T02:21:57.293Z,1.80
2023-04-26T02:24:27.368Z,1.70
2023-04-26T02:27:01.794Z,1.47
2023-04-26T02:29:42.964Z,1.60
2023-04-26T02:32:19.143Z,1.90
2023-04-26T02:34:47.102Z,1.90
2023-04-26T02:37:14.790Z,1.70
2023-04-26T02:39:55.726Z,1.70
2023-04-26T02:42:26.038Z,1.63
2023-04-26T02:44:59.139Z,1.87
2023-04-26T02:47:27.497Z,2.00
2023-04-26T02:50:09.126Z,1.90
2023-04-26T02:52:37.855Z,1.80
2023-04-26T02:55:07.375Z,1.80
2023-04-26T02:57:39.167Z,1.90
2023-04-26T03:00:16.974Z,1.70
2023-04-26T03:02:47.187Z,1.60
2023-04-26T03:05:15.167Z,1.60
2023-04-26T03:07:42.903Z,1.77
2023-04-26T03:10:14.824Z,1.80
2023-04-26T03:12:48.249Z,1.47
2023-04-26T03:15:17.213Z,1.40
2023-04-26T03:17:47.790Z,1.57
2023-04-26T03:20:25.936Z,1.80
2023-04-26T03:22:54.818Z,1.57
2023-04-26T03:25:28.517Z,1.50
2023-04-26T03:27:58.561Z,1.70
2023-04-26T03:30:27.124Z,1.63
2023-04-26T03:32:57.553Z,1.60
2023-04-26T03:35:34.805Z,2.03
2023-04-26T03:38:08.768Z,1.60
2023-04-26T03:40:37.272Z,1.97
2023-04-26T03:43:07.427Z,1.90
2023-04-26T03:45:37.174Z,1.63
2023-04-26T03:48:08.870Z,1.73
2023-04-26T03:50:37.071Z,1.80
2023-04-26T03:53:05.964Z,1.93
2023-04-26T03:55:33.715Z,1.77
2023-04-26T03:58:08.040Z,1.90
2023-04-26T04:00:38.589Z,1.90
2023-04-26T04:03:08.141Z,2.00
2023-04-26T04:05:37.663Z,1.63
2023-04-26T04:08:08.498Z,1.43
2023-04-26T04:10:38.096Z,1.80
2023-04-26T04:13:07.263Z,1.50
2023-04-26T04:15:38.728Z,1.90
2023-04-26T04:18:07.529Z,1.90
2023-04-26T04:20:37.138Z,2.20
2023-04-26T04:23:07.728Z,1.97
2023-04-26T04:25:39.014Z,2.10
2023-04-26T04:28:08.601Z,1.93
2023-04-26T04:30:38.668Z,1.90
2023-04-26T04:33:08.249Z,2.10
2023-04-26T04:35:37.648Z,1.87
2023-04-26T04:38:07.317Z,1.93
2023-04-26T04:40:37.293Z,2.30
2023-04-26T04:43:08.064Z,1.97
2023-04-26T04:45:38.918Z,2.20
2023-04-26T04:48:09.234Z,2.20
2023-04-26T04:50:38.649Z,2.07
2023-04-26T04:53:06.426Z,2.30
2023-04-26T04:55:34.241Z,1.70
2023-04-26T04:58:05.414Z,1.90
2023-04-26T05:00:38.998Z,1.77
2023-04-26T05:03:08.621Z,1.97
2023-04-26T05:05:39.642Z,1.60
2023-04-26T05:08:09.276Z,1.90
2023-04-26T05:10:37.546Z,2.23
2023-04-26T05:13:08.567Z,1.63
2023-04-26T05:15:39.512Z,2.10
2023-04-26T05:18:07.613Z,1.97
2023-04-26T05:20:35.429Z,2.87
2023-04-26T05:23:06.747Z,1.93
2023-04-26T05:25:38.413Z,2.30
2023-04-26T05:28:12.499Z,2.97
2023-04-26T05:30:44.940Z,3.77
2023-04-26T05:33:16.281Z,2.83
2023-04-26T05:35:46.961Z,3.27
2023-04-26T05:38:15.128Z,2.47
2023-04-26T05:40:42.908Z,3.10
2023-04-26T05:43:18.179Z,2.20
2023-04-26T05:45:58.110Z,2.03
2023-04-26T05:48:27.443Z,2.27
2023-04-26T05:50:57.454Z,2.00
2023-04-26T05:53:27.671Z,2.23
2023-04-26T05:55:55.444Z,1.80
2023-04-26T05:58:23.340Z,1.83
2023-04-26T06:01:01.294Z,1.20
2023-04-26T06:03:29.252Z,1.57
2023-04-26T06:05:57.415Z,1.40
2023-04-26T06:08:25.231Z,1.90
2023-04-26T06:10:57.953Z,1.70
2023-04-26T06:13:26.264Z,1.40
2023-04-26T06:15:57.987Z,1.80
2023-04-26T06:18:27.281Z,1.57
2023-04-26T06:20:57.428Z,1.63
2023-04-26T06:23:26.249Z,1.63
2023-04-26T06:25:56.733Z,1.97
2023-04-26T06:28:27.191Z,1.40
2023-04-26T06:30:57.578Z,2.10
2023-04-26T06:33:26.326Z,1.67
2023-04-26T06:35:59.420Z,1.80
2023-04-26T06:38:27.388Z,1.80
2023-04-26T06:40:57.687Z,1.50
2023-04-26T06:43:25.606Z,1.60
2023-04-26T06:46:19.282Z,1.40
2023-04-26T06:48:48.759Z,1.63
2023-04-26T06:51:16.722Z,1.60
2023-04-26T06:53:48.753Z,1.70
2023-04-26T06:56:18.784Z,1.50
2023-04-26T06:59:00.920Z,1.70
2023-04-26T07:01:36.859Z,1.60
2023-04-26T07:04:18.316Z,1.57
2023-04-26T07:06:46.209Z,1.40
2023-04-26T07:09:17.738Z,1.70
2023-04-26T07:11:48.760Z,1.53
2023-04-26T07:14:18.997Z,1.70
2023-04-26T07:16:48.261Z,1.20
2023-04-26T07:19:16.457Z,1.20
2023-04-26T07:21:48.045Z,1.03
2023-04-26T07:24:17.973Z,1.13
2023-04-26T07:26:47.137Z,0.90
2023-04-26T07:29:18.909Z,1.63
2023-04-26T07:31:50.081Z,0.90
2023-04-26T07:34:17.949Z,0.90
2023-04-26T07:36:47.847Z,0.77
2023-04-26T07:39:16.658Z,0.90
2023-04-26T07:41:49.701Z,0.70
2023-04-26T07:44:17.831Z,0.63
2023-04-26T07:46:46.044Z,0.60
2023-04-26T07:49:15.140Z,0.73
2023-04-26T07:51:45.055Z,0.70
2023-04-26T07:54:12.772Z,1.00
2023-04-26T07:56:40.615Z,0.83
2023-04-26T07:59:09.624Z,0.70
2023-04-26T08:01:37.887Z,0.80
2023-04-26T08:04:06.610Z,0.83
2023-04-26T08:06:39.372Z,0.60
2023-04-26T08:09:07.159Z,0.73
2023-04-26T08:11:35.028Z,0.53
2023-04-26T08:14:07.216Z,0.90
2023-04-26T08:16:35.189Z,0.90
2023-04-26T08:19:07.473Z,0.80
2023-04-26T08:21:46.867Z,0.80
2023-04-26T08:24:16.634Z,0.63
2023-04-26T08:26:44.499Z,0.90
2023-04-26T08:29:15.006Z,1.10
2023-04-26T08:31:47.718Z,0.70
2023-04-26T08:34:25.414Z,0.60
2023-04-26T08:36:58.166Z,0.50
2023-04-26T08:39:25.907Z,0.80
2023-04-26T08:41:57.545Z,0.90
2023-04-26T08:44:29.280Z,0.77
2023-04-26T08:47:09.588Z,0.70
2023-04-26T08:49:46.739Z,0.60
2023-04-26T08:52:17.236Z,0.73
2023-04-26T08:54:46.894Z,0.80
2023-04-26T08:57:15.040Z,0.83
2023-04-26T08:59:47.367Z,0.80
2023-04-26T09:02:22.121Z,0.50
2023-04-26T09:04:56.093Z,0.83
2023-04-26T09:07:32.104Z,0.80
2023-04-26T09:10:01.856Z,0.73
2023-04-26T09:12:29.605Z,1.10
2023-04-26T09:14:57.781Z,0.90
2023-04-26T09:17:33.335Z,0.60
2023-04-26T09:20:07.915Z,0.60
2023-04-26T09:22:48.155Z,1.00
2023-04-26T09:25:24.412Z,0.90
2023-04-26T09:27:57.454Z,0.90
2023-04-26T09:30:27.058Z,0.90
2023-04-26T09:32:58.109Z,0.80
2023-04-26T09:35:36.345Z,0.80
2023-04-26T09:38:18.429Z,0.93
2023-04-26T09:40:48.976Z,0.83
2023-04-26T09:43:19.149Z,0.90
2023-04-26T09:45:50.338Z,0.90
2023-04-26T09:48:23.533Z,0.80
2023-04-26T09:50:55.780Z,0.80
2023-04-26T09:53:37.434Z,1.20
2023-04-26T09:56:10.028Z,0.87
2023-04-26T09:58:39.814Z,0.87
2023-04-26T10:01:10.030Z,1.13
2023-04-26T10:03:39.028Z,0.80
2023-04-26T10:06:07.547Z,0.97
2023-04-26T10:08:38.233Z,1.00
2023-04-26T10:11:10.471Z,0.90
2023-04-26T10:13:39.183Z,0.80
2023-04-26T10:16:13.773Z,0.83
2023-04-26T10:18:43.285Z,1.03
2023-04-26T10:21:24.641Z,0.90
2023-04-26T10:23:55.254Z,0.90
2023-04-26T10:26:48.660Z,1.00
2023-04-26T10:29:19.326Z,0.80
2023-04-26T10:32:17.415Z,0.90
2023-04-26T10:35:11.307Z,0.93
2023-04-26T10:38:17.656Z,0.93
2023-04-26T10:40:48.867Z,0.87
2023-04-26T10:43:29.710Z,1.10
2023-04-26T10:45:57.865Z,0.70
2023-04-26T10:48:39.361Z,0.90
2023-04-26T10:51:12.391Z,0.90
2023-04-26T10:54:08.073Z,1.03
2023-04-26T10:57:00.132Z,1.00
2023-04-26T10:59:43.212Z,0.90
2023-04-26T11:02:17.909Z,0.77
2023-04-26T11:05:00.961Z,0.90
2023-04-26T11:07:39.478Z,1.17
2023-04-26T11:10:10.930Z,0.80
2023-04-26T11:12:42.948Z,0.83
2023-04-26T11:15:18.807Z,0.90
2023-04-26T11:17:48.119Z,0.90
2023-04-26T11:20:18.255Z,0.90
2023-04-26T11:22:46.223Z,1.30
2023-04-26T11:25:14.263Z,0.90
2023-04-26T11:27:48.687Z,0.80
2023-04-26T11:30:19.886Z,0.70
2023-04-26T11:32:48.061Z,0.80
2023-04-26T11:35:18.468Z,0.80
2023-04-26T11:37:49.555Z,1.00
2023-04-26T11:40:18.969Z,0.70
2023-04-26T11:42:49.769Z,0.83
2023-04-26T11:45:19.105Z,1.10
2023-04-26T11:47:48.818Z,0.80
2023-04-26T11:50:18.636Z,0.83
2023-04-26T11:52:49.881Z,0.73
2023-04-26T11:55:19.056Z,1.30
2023-04-26T11:57:49.665Z,1.00
2023-04-26T12:00:22.549Z,0.90
2023-04-26T12:02:57.417Z,0.93
2023-04-26T12:05:38.809Z,1.17
2023-04-26T12:08:06.935Z,0.80
2023-04-26T12:10:40.197Z,0.90
2023-04-26T12:13:10.141Z,0.90
2023-04-26T12:15:38.610Z,0.90
2023-04-26T12:18:16.372Z,1.00
2023-04-26T12:20:48.008Z,0.97
2023-04-26T12:23:19.207Z,0.70
2023-04-26T12:26:05.962Z,0.90
2023-04-26T12:28:42.471Z,1.00
2023-04-26T12:31:18.594Z,0.90
2023-04-26T12:33:48.248Z,0.97
2023-04-26T12:36:18.940Z,0.87
2023-04-26T12:38:48.238Z,0.93
2023-04-26T12:41:18.474Z,1.10
2023-04-26T12:43:47.624Z,0.83
2023-04-26T12:46:18.877Z,0.90
2023-04-26T12:48:48.232Z,1.10
2023-04-26T12:51:16.328Z,1.00
2023-04-26T12:53:51.033Z,0.93
2023-04-26T12:56:20.115Z,0.93
2023-04-26T12:58:50.163Z,1.00
2023-04-26T13:01:18.530Z,0.93
2023-04-26T13:03:48.431Z,1.10
2023-04-26T13:06:18.423Z,0.83
2023-04-26T13:08:50.541Z,1.00
2023-04-26T13:11:18.700Z,0.90
2023-04-26T13:13:50.417Z,1.13
2023-04-26T13:16:18.271Z,0.87
2023-04-26T13:18:48.326Z,1.20
2023-04-26T13:21:19.025Z,1.43
2023-04-26T13:23:48.642Z,1.10
2023-04-26T13:26:20.555Z,1.10
2023-04-26T13:28:49.726Z,1.27
2023-04-26T13:31:18.202Z,0.90
2023-04-26T13:33:49.170Z,0.93
2023-04-26T13:36:18.003Z,1.20
2023-04-26T13:38:50.909Z,0.87
2023-04-26T13:41:19.895Z,1.00
2023-04-26T13:43:50.091Z,0.90
2023-04-26T13:46:17.945Z,1.00
2023-04-26T13:48:48.548Z,1.00
2023-04-26T13:51:19.670Z,1.00
2023-04-26T13:53:47.428Z,0.80
2023-04-26T13:56:16.233Z,0.93
2023-04-26T13:58:50.013Z,0.90
2023-04-26T14:01:18.842Z,1.20
2023-04-26T14:03:52.261Z,0.80
2023-04-26T14:06:26.216Z,0.93
2023-04-26T14:08:58.400Z,0.80
2023-04-26T14:11:29.555Z,1.07
2023-04-26T14:14:00.781Z,1.20
2023-04-26T14:16:28.926Z,1.30
2023-04-26T14:18:58.650Z,0.97
2023-04-26T14:21:28.302Z,0.80
2023-04-26T14:24:01.251Z,0.80
2023-04-26T14:26:30.816Z,1.17
2023-04-26T14:29:00.260Z,0.80
2023-04-26T14:31:30.364Z,1.00
2023-04-26T14:33:58.510Z,0.80
2023-04-26T14:36:26.744Z,0.90
2023-04-26T14:38:54.476Z,1.20
2023-04-26T14:41:23.095Z,1.13
2023-04-26T14:43:54.134Z,0.87
2023-04-26T14:46:27.232Z,1.17
2023-04-26T14:48:58.846Z,1.03
2023-04-26T14:51:34.550Z,1.00
2023-04-26T14:54:06.306Z,0.83
2023-04-26T14:56:39.877Z,1.23
2023-04-26T14:59:09.157Z,1.00
2023-04-26T15:01:38.590Z,1.40
2023-04-26T15:04:09.177Z,1.10
2023-04-26T15:06:38.659Z,1.27
2023-04-26T15:09:09.220Z,1.17
2023-04-26T15:11:38.932Z,0.90
2023-04-26T15:14:09.858Z,1.10
2023-04-26T15:16:40.062Z,1.00
2023-04-26T15:19:14.851Z,0.93
2023-04-26T15:21:43.820Z,1.10
2023-04-26T15:24:15.109Z,0.80
2023-04-26T15:26:46.248Z,1.13
2023-04-26T15:29:17.681Z,1.10
2023-04-26T15:31:49.887Z,0.97
2023-04-26T15:34:19.009Z,1.00
2023-04-26T15:36:48.641Z,1.10
2023-04-26T15:39:16.351Z,1.10
2023-04-26T15:41:47.565Z,1.10
2023-04-26T15:44:19.073Z,1.10
2023-04-26T15:46:49.480Z,1.20
2023-04-26T15:49:21.293Z,1.00
2023-04-26T15:51:50.024Z,1.03
2023-04-26T15:54:17.844Z,1.03
2023-04-26T15:56:48.968Z,1.00
2023-04-26T15:59:20.928Z,1.13
2023-04-26T16:01:50.466Z,1.10
2023-04-26T16:04:18.343Z,1.03
2023-04-26T16:06:48.049Z,1.27
2023-04-26T16:09:25.292Z,0.97
2023-04-26T16:11:59.400Z,0.97
2023-04-26T16:14:27.159Z,1.20
2023-04-26T16:16:56.322Z,0.90
2023-04-26T16:19:25.676Z,1.03
2023-04-26T16:21:59.942Z,0.90
2023-04-26T16:24:29.234Z,1.17
2023-04-26T16:26:57.146Z,0.87
2023-04-26T16:29:25.227Z,1.00
2023-04-26T16:31:53.124Z,1.00
2023-04-26T16:34:22.269Z,1.17
2023-04-26T16:36:50.094Z,1.37
2023-04-26T16:39:17.877Z,1.13
2023-04-26T16:41:46.130Z,0.87
2023-04-26T16:44:13.878Z,1.10
2023-04-26T16:46:41.752Z,1.27
2023-04-26T16:49:10.599Z,1.47
2023-04-26T16:51:39.741Z,1.00
2023-04-26T16:54:07.584Z,1.27
2023-04-26T16:56:35.394Z,0.83
2023-04-26T16:59:03.365Z,0.90
2023-04-26T17:01:31.112Z,0.90
2023-04-26T17:03:59.227Z,1.20
2023-04-26T17:06:27.256Z,1.20
2023-04-26T17:08:56.409Z,0.93
2023-04-26T17:11:24.184Z,1.00
2023-04-26T17:13:51.933Z,1.10
2023-04-26T17:16:19.717Z,1.13
2023-04-26T17:18:47.488Z,1.10
2023-04-26T17:21:15.240Z,1.00
2023-04-26T17:23:43.068Z,1.00
2023-04-26T17:26:12.283Z,1.23
2023-04-26T17:28:39.988Z,1.13
2023-04-26T17:31:07.787Z,1.40
2023-04-26T17:33:36.838Z,0.90
2023-04-26T17:36:05.030Z,1.10
2023-04-26T17:38:32.875Z,1.10
2023-04-26T17:41:03.310Z,1.20
2023-04-26T17:43:32.419Z,0.87
2023-04-26T17:46:00.282Z,1.23
2023-04-26T17:48:29.115Z,1.10
2023-04-26T17:50:56.998Z,1.10
2023-04-26T17:53:24.866Z,0.90
2023-04-26T17:55:52.970Z,1.07
2023-04-26T17:58:20.824Z,1.03
2023-04-26T18:00:50.918Z,1.10
2023-04-26T18:03:20.221Z,1.23
2023-04-26T18:05:48.464Z,1.43
2023-04-26T18:08:16.285Z,1.10
2023-04-26T18:10:44.068Z,1.17
2023-04-26T18:13:12.161Z,1.07
2023-04-26T18:15:39.903Z,0.90
2023-04-26T18:18:09.038Z,1.17
2023-04-26T18:20:37.581Z,1.30
2023-04-26T18:23:05.518Z,1.40
2023-04-26T18:25:33.384Z,1.10
2023-04-26T18:28:01.523Z,1.50
2023-04-26T18:30:29.255Z,1.10
2023-04-26T18:32:57.044Z,1.00
2023-04-26T18:35:26.285Z,1.13
2023-04-26T18:37:54.036Z,1.23
2023-04-26T18:40:21.804Z,1.10
2023-04-26T18:42:49.580Z,1.17
2023-04-26T18:45:17.447Z,1.27
2023-04-26T18:47:45.745Z,1.10
2023-04-26T18:50:13.947Z,1.23
2023-04-26T18:52:43.084Z,1.13
2023-04-26T18:55:11.233Z,1.30
2023-04-26T18:57:38.969Z,0.90
2023-04-26T19:00:09.266Z,1.23
2023-04-26T19:02:40.071Z,1.13
2023-04-26T19:05:09.789Z,1.37
2023-04-26T19:07:38.078Z,1.20
2023-04-26T19:10:08.421Z,1.30
2023-04-26T19:12:36.338Z,2.00
2023-04-26T19:15:04.285Z,1.80
2023-04-26T19:17:33.344Z,1.50
2023-04-26T19:20:01.105Z,1.50
2023-04-26T19:22:28.844Z,1.30
2023-04-26T19:24:56.578Z,1.33
2023-04-26T19:27:25.762Z,1.33
2023-04-26T19:29:53.741Z,1.60
2023-04-26T19:32:22.892Z,2.00
2023-04-26T19:34:51.063Z,2.03
2023-04-26T19:37:18.781Z,1.70
2023-04-26T19:39:46.559Z,1.60
2023-04-26T19:42:14.283Z,1.57
2023-04-26T19:44:43.432Z,1.60
2023-04-26T19:47:11.282Z,1.50
2023-04-26T19:49:39.177Z,1.30
2023-04-26T19:52:06.946Z,1.43
2023-04-26T19:54:34.715Z,1.47
2023-04-26T19:57:03.803Z,1.57
2023-04-26T19:59:31.624Z,1.37
2023-04-26T20:02:00.874Z,1.20
2023-04-26T20:04:28.772Z,1.27
2023-04-26T20:06:57.301Z,1.07
2023-04-26T20:09:25.068Z,1.23
2023-04-26T20:11:53.007Z,0.90
2023-04-26T20:14:20.768Z,1.30
2023-04-26T20:16:48.708Z,1.17
2023-04-26T20:19:17.905Z,1.30
2023-04-26T20:21:45.607Z,1.37
2023-04-26T20:24:13.647Z,1.13
2023-04-26T20:26:41.448Z,1.20
2023-04-26T20:29:09.505Z,1.13
2023-04-26T20:31:37.597Z,1.27
2023-04-26T20:34:05.547Z,1.23
2023-04-26T20:36:34.687Z,1.30
2023-04-26T20:39:02.464Z,1.30
2023-04-26T20:41:30.525Z,1.40
2023-04-26T20:43:58.479Z,1.53
2023-04-26T20:46:26.260Z,1.90
2023-04-26T20:48:54.081Z,1.67
2023-04-26T20:51:21.794Z,1.40
2023-04-26T20:53:51.015Z,1.60
2023-04-26T20:56:19.139Z,1.27
2023-04-26T20:58:46.960Z,1.63
2023-04-26T21:01:14.896Z,1.83
2023-04-26T21:03:42.889Z,1.53
2023-04-26T21:06:10.925Z,1.70
2023-04-26T21:08:38.708Z,1.93
2023-04-26T21:11:07.870Z,1.70
2023-04-26T21:13:35.639Z,1.43
2023-04-26T21:16:03.697Z,1.60
2023-04-26T21:18:31.835Z,1.47
2023-04-26T21:20:59.624Z,1.30
2023-04-26T21:23:27.438Z,1.30
2023-04-26T21:25:55.190Z,1.60
2023-04-26T21:28:24.431Z,1.70
2023-04-26T21:30:52.280Z,1.77
2023-04-26T21:33:20.066Z,1.43
2023-04-26T21:35:48.094Z,1.90
2023-04-26T21:38:15.839Z,1.93
2023-04-26T21:40:43.783Z,1.70
2023-04-26T21:43:11.594Z,1.77
2023-04-26T21:45:41.362Z,1.73
2023-04-26T21:48:09.342Z,1.93
2023-04-26T21:50:37.272Z,1.73
2023-04-26T21:53:05.219Z,1.77
2023-04-26T21:55:32.940Z,2.07
2023-04-26T21:58:00.792Z,1.93
2023-04-26T22:00:28.704Z,1.83
2023-04-26T22:02:57.955Z,1.77
2023-04-26T22:05:26.847Z,1.87
2023-04-26T22:07:54.905Z,2.13
2023-04-26T22:10:22.668Z,1.80
2023-04-26T22:12:50.491Z,2.17
2023-04-26T22:15:18.270Z,2.30
2023-04-26T22:17:46.592Z,1.63
2023-04-26T22:20:16.074Z,2.10
2023-04-26T22:22:43.795Z,1.97
2023-04-26T22:25:11.618Z,1.90
2023-04-26T22:27:39.372Z,2.03
2023-04-26T22:30:22.771Z,2.10
2023-04-26T22:32:53.934Z,1.93
2023-04-26T22:35:24.322Z,2.40
2023-04-26T22:37:52.310Z,2.27
2023-04-26T22:40:20.530Z,2.10
2023-04-26T22:42:49.284Z,2.33
2023-04-26T22:45:17.048Z,2.20
2023-04-26T22:47:44.841Z,2.90
2023-04-26T22:50:12.886Z,2.70
2023-04-26T22:52:42.176Z,2.57
2023-04-26T22:55:10.714Z,2.83
2023-04-26T22:57:38.599Z,3.10
2023-04-26T23:00:12.286Z,3.00
2023-04-26T23:02:40.235Z,2.50
2023-04-26T23:05:10.373Z,2.63
2023-04-26T23:07:38.537Z,2.60
2023-04-26T23:10:08.856Z,2.60
2023-04-26T23:12:37.280Z,2.33
2023-04-26T23:15:06.182Z,2.33
2023-04-26T23:17:34.822Z,2.33
2023-04-26T23:20:11.552Z,2.70
2023-04-26T23:22:39.710Z,2.77
2023-04-26T23:25:10.131Z,2.40
2023-04-26T23:27:38.564Z,2.80
2023-04-26T23:30:08.004Z,2.60
2023-04-26T23:32:35.871Z,2.83
2023-04-26T23:35:03.779Z,2.13
2023-04-26T23:37:31.573Z,3.00
2023-04-26T23:39:59.522Z,2.47
2023-04-26T23:42:28.788Z,2.37
2023-04-26T23:44:56.675Z,2.67
2023-04-26T23:47:24.455Z,2.70
2023-04-26T23:49:52.181Z,2.97
2023-04-26T23:52:19.989Z,2.90
2023-04-26T23:54:47.706Z,2.83
2023-04-26T23:57:15.438Z,2.90
2023-04-26T23:59:44.600Z,3.20
